Decoded Metar for EHEH (EINDHOVEN in NETHERLANDS) (IATA:EIN) | Meteo·Mobile Aviation Weather
aviador You're here:

EHEH Decoded Metar

EINDHOVEN in NETHERLANDS
Report Time2019-07-24 04:40:00
UTC Time2019-07-24 04:57:16
Flight Rules vfr VFR
Wind130° at 05 kt
W.Decomp.*RWY 04: 5.0 kt RCW
Visibility9999 m
Phenomena:N/A
Clouds:Overcast 350 Hf
Expected CloudBase > 2,400 ft AGL from Temp-Dew spread
Ceiling35,000 ft
Temp21°C (ISA +6)
Dew Point15°C (69% RH)
AAT20.8°C
QNH1014 hPa
Density Alt984 ft
Elevation72 ft
Report Wrong Elevation
Raw Report
EHEH 240440Z AUTO 13005KT 100V190 9999 OVC350 21/15 Q1014 BLU
14005KT CAVOK=

Extra information for EHEH:More info

Metar Taf Metar & Taf Last 4 Metars F.Rules Stats Wind Profile Meteogram Temp Stats Airport Information Weather charts Add Link Nearby VenuesMetar ALERT Operation Metar Decoded Social comments